Time;durP1;ratioP1;P1;durP2;ratioP2;P2;SDS_P1;SDS_P2;PMS_P1;PMS_P2;Temp;Humidity;BMP_temperature;BMP_pressure;BME280_temperature;BME280_humidity;BME280_pressure;Samples;Min_cycle;Max_cycle;Signal;HPM_P1;HPM_P2
2023/05/15 07:01:35;;;;;;;1.03;1.03;;;13.10;99.90;16.60;101323.00;;;;6278185;22;20196;-69
2023/05/15 07:04:03;;;;;;;2.77;2.67;;;13.60;99.90;16.40;101261.00;;;;6251129;22;20198;-70
2023/05/15 07:06:39;;;;;;;3.10;2.80;;;13.30;99.90;15.40;101287.00;;;;6250809;22;20443;-69
2023/05/15 07:09:08;;;;;;;7.73;6.50;;;13.00;99.90;15.30;101299.00;;;;6251284;22;20164;-70
2023/05/15 07:11:44;;;;;;;4.83;4.63;;;12.90;99.90;15.30;101273.00;;;;6251364;22;20185;-69
2023/05/15 07:14:12;;;;;;;5.83;4.87;;;12.90;99.90;14.90;101288.00;;;;6225705;22;20160;-70
2023/05/15 07:16:38;;;;;;;2.57;2.47;;;12.70;99.90;15.50;101244.00;;;;6251317;22;20144;-69
2023/05/15 07:19:04;;;;;;;1.43;1.33;;;12.80;99.90;17.20;101260.00;;;;6277894;22;20149;-70
2023/05/15 07:21:42;;;;;;;1.33;1.07;;;13.30;99.90;18.10;101335.00;;;;6224963;22;20577;-69
2023/05/15 07:24:19;;;;;;;0.53;0.53;;;14.10;99.90;18.50;101331.00;;;;6248842;22;20154;-69
2023/05/15 07:26:53;;;;;;;3.10;3.00;;;14.50;99.90;18.80;101330.00;;;;6251257;22;20149;-69
2023/05/15 07:29:25;;;;;;;5.97;3.07;;;14.70;99.90;19.60;101333.00;;;;6251999;22;20246;-69
2023/05/15 07:31:54;;;;;;;1.90;1.90;;;15.40;99.90;19.80;101298.00;;;;6251022;22;20155;-71
2023/05/15 07:34:20;;;;;;;4.67;3.93;;;15.70;99.90;17.30;101255.00;;;;6251315;22;20136;-70
2023/05/15 07:36:49;;;;;;;15.87;4.60;;;15.00;99.90;18.10;101324.00;;;;6250203;22;20153;-70
2023/05/15 07:39:23;;;;;;;5.07;2.77;;;15.00;99.90;17.50;101310.00;;;;6250905;22;20158;-70
2023/05/15 07:41:54;;;;;;;3.87;3.67;;;14.60;99.90;15.80;101289.00;;;;6278120;22;20175;-70
2023/05/15 07:44:20;;;;;;;0.60;0.60;;;13.70;99.90;16.90;101291.00;;;;6225911;22;20155;-69
2023/05/15 07:46:48;;;;;;;3.23;3.00;;;13.60;99.90;18.90;101320.00;;;;6225672;22;20211;-70
2023/05/15 07:49:14;;;;;;;48.77;19.77;;;14.50;99.90;16.90;101322.00;;;;6225091;22;20192;-71
2023/05/15 07:51:40;;;;;;;6.93;6.40;;;14.30;99.90;15.80;101285.00;;;;6278107;22;20147;-71
2023/05/15 07:54:06;;;;;;;7.83;5.03;;;13.90;99.90;15.00;101279.00;;;;6278043;22;20567;-70
2023/05/15 07:56:32;;;;;;;12.50;4.67;;;13.20;99.90;16.30;101289.00;;;;6278143;22;20153;-71
2023/05/15 07:58:57;;;;;;;3.80;3.00;;;13.50;99.90;17.00;101304.00;;;;6246797;22;20190;-69
2023/05/15 08:01:29;;;;;;;2.43;0.77;;;13.80;99.90;17.10;101254.00;;;;6193484;23;20158;-71
2023/05/15 08:04:08;;;;;;;1.90;1.80;;;13.90;99.90;17.90;101317.00;;;;6193592;23;20529;-67
2023/05/15 08:06:52;;;;;;;25.07;15.50;;;14.50;99.90;17.20;101327.00;;;;6220538;23;20144;-69
2023/05/15 08:09:18;;;;;;;7.83;6.40;;;14.40;99.90;17.20;101317.00;;;;6220178;23;20143;-67
2023/05/15 08:11:44;;;;;;;3.17;2.90;;;14.10;99.90;16.20;101317.00;;;;6220683;23;20150;-71
2023/05/15 08:14:15;;;;;;;34.27;18.40;;;14.00;99.90;16.80;101315.00;;;;6220739;23;20522;-70
2023/05/15 08:16:51;;;;;;;17.37;8.60;;;14.00;99.90;16.20;101254.00;;;;6219013;23;20162;-71
2023/05/15 08:19:23;;;;;;;27.00;15.67;;;13.80;99.90;17.10;101320.00;;;;6195577;23;20159;-71
2023/05/15 08:22:36;;;;;;;35.50;18.83;;;14.00;99.90;16.30;101306.00;;;;6220839;23;20170;-70
2023/05/15 08:25:19;;;;;;;0.20;0.20;;;14.10;99.90;17.70;101312.00;;;;6136444;23;20168;-70
2023/05/15 08:27:48;;;;;;;1.50;1.50;;;14.30;99.90;18.90;101334.00;;;;6221718;23;20159;-70
2023/05/15 08:30:49;;;;;;;15.57;9.20;;;14.90;99.90;18.20;101293.00;;;;6194704;23;20183;-70
2023/05/15 08:33:39;;;;;;;10.83;7.07;;;15.10;99.90;19.20;101341.00;;;;6220336;23;20138;-70
2023/05/15 08:36:30;;;;;;;1.57;1.47;;;15.40;99.90;17.10;101322.00;;;;6219742;23;20154;-69
2023/05/15 08:38:59;;;;;;;6.13;5.43;;;14.90;99.90;16.90;101333.00;;;;6220215;23;20592;-73
2023/05/15 08:42:14;;;;;;;2.93;2.73;;;14.50;99.90;16.70;101302.00;;;;6220022;23;20164;-70
2023/05/15 08:45:14;;;;;;;8.63;8.10;;;14.10;99.90;16.10;101318.00;;;;6219806;23;20599;-67
2023/05/15 08:47:43;;;;;;;22.80;14.53;;;14.00;99.90;17.00;101324.00;;;;6220012;23;20142;-69
2023/05/15 08:50:15;;;;;;;12.00;8.40;;;14.00;99.90;16.60;101283.00;;;;6220358;23;20146;-72
2023/05/15 08:52:50;;;;;;;19.83;9.47;;;14.20;99.90;15.90;101328.00;;;;6219739;23;20176;-68
2023/05/15 08:55:28;;;;;;;3.77;2.63;;;13.90;99.90;16.30;101318.00;;;;6195184;23;20168;-68
2023/05/15 08:58:02;;;;;;;2.93;2.33;;;13.90;99.90;15.70;101280.00;;;;6219713;23;20247;-68
2023/05/15 09:00:37;;;;;;;7.77;5.87;;;13.60;99.90;18.20;101345.00;;;;6255756;22;20172;-69
2023/05/15 09:03:21;;;;;;;10.73;3.90;;;14.40;99.90;18.30;101365.00;;;;6275865;22;20188;-67
2023/05/15 09:06:40;;;;;;;4.37;4.07;;;15.00;99.90;17.40;101351.00;;;;6275854;22;20192;-69
2023/05/15 09:10:02;;;;;;;0.20;0.20;;;14.40;99.90;18.00;101377.00;;;;6099063;23;20216;-69
2023/05/15 09:12:53;;;;;;;8.73;7.70;;;15.20;99.90;16.20;101332.00;;;;6093695;23;20201;-68
2023/05/15 09:15:24;;;;;;;0.20;0.20;;;14.20;99.90;17.70;101340.00;;;;6070420;23;20161;-68
2023/05/15 09:18:06;;;;;;;11.50;6.23;;;14.30;99.90;17.90;101358.00;;;;6070391;23;20169;-68
2023/05/15 09:20:35;;;;;;;5.33;3.27;;;14.60;99.90;18.10;101318.00;;;;6138907;23;20205;-68
2023/05/15 09:23:27;;;;;;;19.40;14.63;;;14.80;99.90;17.70;101351.00;;;;6210941;23;20268;-68
2023/05/15 09:26:16;;;;;;;10.10;5.97;;;14.80;99.90;16.60;101351.00;;;;6210949;23;20198;-67
2023/05/15 09:29:05;;;;;;;10.37;8.60;;;14.40;99.90;16.20;101296.00;;;;6154242;23;20552;-67
2023/05/15 09:31:31;;;;;;;1.07;1.07;;;13.90;99.90;16.50;101331.00;;;;6155338;23;20240;-68
2023/05/15 09:34:33;;;;;;;6.23;3.30;;;13.90;99.90;18.20;101352.00;;;;6131147;23;20191;-70
2023/05/15 09:37:27;;;;;;;2.77;2.33;;;14.50;99.90;19.10;101351.00;;;;6160538;23;20539;-69
2023/05/15 09:40:54;;;;;;;38.67;21.83;;;15.20;99.90;17.10;101363.00;;;;6156931;23;20169;-70
2023/05/15 09:43:42;;;;;;;1.23;1.23;;;14.80;99.90;18.40;101355.00;;;;6158494;23;20628;-69
2023/05/15 09:46:11;;;;;;;27.03;8.97;;;14.90;99.90;18.40;101374.00;;;;6148306;23;20170;-69
2023/05/15 09:48:39;;;;;;;3.57;3.37;;;15.20;99.90;19.10;101376.00;;;;6187685;23;20242;-69
2023/05/15 09:51:33;;;;;;;2.83;2.73;;;15.40;99.90;19.90;101395.00;;;;6186533;23;20656;-70
2023/05/15 09:53:59;;;;;;;6.10;2.30;;;15.80;99.90;18.30;101351.00;;;;6252960;22;20167;-74
2023/05/15 09:56:56;;;;;;;10.67;7.90;;;15.60;99.90;19.50;101333.00;;;;6249834;22;20178;-70
2023/05/15 09:59:51;;;;;;;11.63;7.97;;;15.80;99.90;19.30;101385.00;;;;6274831;22;20179;-75
2023/05/15 10:02:30;;;;;;;0.20;0.20;;;15.90;99.90;19.80;101384.00;;;;6253832;22;20190;-70
2023/05/15 10:05:06;;;;;;;0.80;0.80;;;16.10;99.90;19.70;101386.00;;;;6250031;22;20198;-68
2023/05/15 10:08:07;;;;;;;1.07;1.07;;;16.20;99.90;19.70;101384.00;;;;6249724;22;20166;-70
2023/05/15 10:10:33;;;;;;;0.90;0.90;;;16.20;99.90;19.80;101379.00;;;;6277175;22;20154;-69
2023/05/15 10:13:04;;;;;;;0.30;0.30;;;16.20;99.90;20.00;101397.00;;;;6274898;22;20149;-70
2023/05/15 10:15:31;;;;;;;1.23;1.23;;;16.30;99.90;20.20;101389.00;;;;6275676;22;20569;-70
2023/05/15 10:18:34;;;;;;;11.03;4.47;;;16.40;99.90;20.00;101391.00;;;;6274834;22;20148;-69
2023/05/15 10:34:00;;;;;;;17.67;4.03;;;14.70;99.90;17.80;101335.00;;;;5070222;28;20614;-71
2023/05/15 10:36:47;;;;;;;4.17;2.40;;;14.80;99.90;18.50;101367.00;;;;5069229;28;20651;-69
2023/05/15 10:39:13;;;;;;;0.77;0.73;;;15.10;99.90;19.20;101374.00;;;;5071281;28;20195;-69
2023/05/15 10:41:39;;;;;;;2.77;2.50;;;15.40;99.90;19.30;101349.00;;;;5059875;28;20217;-68
2023/05/15 10:44:33;;;;;;;4.10;3.80;;;15.60;99.90;18.90;101371.00;;;;5092842;28;20190;-68
2023/05/15 10:47:07;;;;;;;22.67;11.27;;;15.60;99.90;18.20;101368.00;;;;5071987;28;20230;-68
2023/05/15 10:49:58;;;;;;;14.23;9.47;;;15.20;99.90;17.50;101350.00;;;;5078890;28;20274;-67
2023/05/15 10:52:47;;;;;;;24.97;12.47;;;14.90;99.90;17.20;101355.00;;;;5077473;28;20213;-68
2023/05/15 10:55:33;;;;;;;9.30;2.03;;;14.70;99.90;17.50;101343.00;;;;5077640;28;20667;-67
2023/05/15 10:58:21;;;;;;;4.20;4.00;;;14.50;99.90;18.20;101361.00;;;;5077602;28;20190;-68
2023/05/15 11:01:24;;;;;;;4.47;2.13;;;14.70;99.90;19.00;101375.00;;;;5078394;28;20177;-67
2023/05/15 11:04:33;;;;;;;0.60;0.60;;;15.10;99.90;18.90;101369.00;;;;5064861;28;20243;-68
2023/05/15 11:07:19;;;;;;;1.00;1.00;;;15.30;99.90;18.80;101366.00;;;;5047402;28;20515;-68
2023/05/15 11:10:26;;;;;;;2.83;2.10;;;15.30;99.90;19.00;101367.00;;;;5076689;28;20191;-68
2023/05/15 11:13:16;;;;;;;1.07;1.07;;;15.30;99.90;18.60;101365.00;;;;5077818;28;20205;-67
2023/05/15 11:16:02;;;;;;;13.63;6.73;;;15.20;99.90;18.80;101320.00;;;;5076940;28;20185;-68
2023/05/15 11:18:29;;;;;;;0.30;0.30;;;15.20;99.90;18.80;101320.00;;;;5073850;28;20238;-68
2023/05/15 11:21:45;;;;;;;0.67;0.67;;;15.30;99.90;18.90;101361.00;;;;5078301;28;20256;-68
2023/05/15 11:24:51;;;;;;;3.80;2.63;;;15.40;99.90;19.10;101367.00;;;;5047670;28;20211;-68
2023/05/15 11:27:43;;;;;;;1.93;1.87;;;15.50;99.90;17.90;101344.00;;;;5045343;28;20203;-68
2023/05/15 11:30:47;;;;;;;1.07;1.03;;;15.10;99.90;18.40;101347.00;;;;5045760;28;20204;-68
2023/05/15 11:33:19;;;;;;;9.13;3.40;;;15.00;99.90;18.60;101361.00;;;;5067714;28;20256;-68
2023/05/15 11:36:00;;;;;;;0.30;0.30;;;15.20;99.90;18.80;101358.00;;;;5066501;28;20182;-68
2023/05/15 11:38:26;;;;;;;0.90;0.90;;;15.30;99.90;18.90;101362.00;;;;5066391;28;20209;-68
2023/05/15 11:41:05;;;;;;;0.50;0.50;;;15.40;99.90;18.90;101367.00;;;;5068016;28;20204;-68
2023/05/15 11:43:56;;;;;;;;;;;;;;;;;;;;;
2023/05/15 11:46:26;;;;;;;0.40;0.40;;;15.30;99.90;18.30;101310.00;;;;5054759;28;20219;-68
2023/05/15 11:48:58;;;;;;;1.17;1.17;;;15.10;99.90;18.30;101335.00;;;;5048150;28;20202;-68
2023/05/15 11:51:31;;;;;;;0.57;0.57;;;14.90;99.90;18.60;101358.00;;;;5054873;28;20218;-68
2023/05/15 11:54:24;;;;;;;2.00;1.90;;;15.10;99.90;18.40;101356.00;;;;5055456;28;20176;-68
2023/05/15 11:57:21;;;;;;;0.87;0.87;;;15.10;99.90;18.50;101358.00;;;;5031457;28;20198;-71
2023/05/15 12:00:13;;;;;;;4.93;3.27;;;15.00;99.90;17.70;101347.00;;;;5037277;28;20186;-72
2023/05/15 12:02:48;;;;;;;0.97;0.67;;;14.90;99.90;17.40;101348.00;;;;5054718;28;20265;-78
2023/05/15 12:05:42;;;;;;;1.23;1.23;;;14.60;99.90;17.20;101336.00;;;;5068047;28;20190;-72
2023/05/15 12:08:24;;;;;;;2.10;1.90;;;14.30;99.90;16.80;101350.00;;;;5053981;28;20192;-74
2023/05/15 12:11:30;;;;;;;2.03;1.93;;;14.20;99.90;16.70;101355.00;;;;5036192;28;20191;-68
2023/05/15 12:13:56;;;;;;;1.73;1.63;;;14.10;99.90;16.60;101371.00;;;;5055632;28;20176;-68
2023/05/15 12:16:25;;;;;;;1.03;1.03;;;13.90;99.90;16.30;101317.00;;;;5048430;28;20674;-68
2023/05/15 12:18:56;;;;;;;0.97;0.97;;;13.70;99.90;15.90;101360.00;;;;5035031;28;20290;-68
2023/05/15 12:21:33;;;;;;;2.00;1.57;;;13.50;99.90;15.80;101361.00;;;;5035436;28;20191;-69
2023/05/15 12:24:03;;;;;;;1.10;1.10;;;13.40;99.90;16.50;101380.00;;;;5052996;28;20283;-67
2023/05/15 12:26:38;;;;;;;1.07;1.07;;;13.50;99.90;16.30;101369.00;;;;5053786;28;20192;-64
2023/05/15 12:29:07;;;;;;;1.80;1.70;;;13.50;99.90;15.90;101361.00;;;;5053648;28;20289;-65
2023/05/15 12:31:34;;;;;;;1.97;1.77;;;13.40;99.90;16.00;101367.00;;;;5054999;28;20215;-65
2023/05/15 12:34:16;;;;;;;1.83;1.73;;;13.30;99.90;15.70;101369.00;;;;5054661;28;20644;-64
2023/05/15 12:36:47;;;;;;;1.27;1.23;;;13.20;99.90;15.50;101374.00;;;;5053243;28;20267;-68
2023/05/15 12:39:13;;;;;;;1.20;1.17;;;13.00;99.90;15.10;101370.00;;;;5054568;28;20214;-66
2023/05/15 12:41:48;;;;;;;0.70;0.70;;;12.90;99.90;15.10;101373.00;;;;5053480;28;20197;-65
2023/05/15 12:44:17;;;;;;;1.23;1.23;;;12.80;99.90;15.50;101348.00;;;;5053703;28;20194;-63
2023/05/15 12:46:45;;;;;;;0.93;0.93;;;12.90;99.90;15.70;101341.00;;;;5054790;28;20645;-66
2023/05/15 12:49:35;;;;;;;0.70;0.70;;;13.00;99.90;15.70;101330.00;;;;5039972;28;20195;-66
2023/05/15 12:52:09;;;;;;;0.70;0.70;;;13.10;99.90;15.90;101388.00;;;;5037918;28;20297;-67
2023/05/15 12:54:40;;;;;;;1.00;1.00;;;13.10;99.90;15.40;101337.00;;;;5052038;28;20178;-67
2023/05/15 12:57:08;;;;;;;1.27;1.27;;;13.10;99.90;16.00;101379.00;;;;5036250;28;20222;-67
2023/05/15 12:59:34;;;;;;;0.83;0.83;;;13.20;99.90;16.40;101388.00;;;;5052766;28;20195;-67
2023/05/15 13:02:01;;;;;;;0.90;0.90;;;13.40;99.90;16.60;101391.00;;;;5036797;28;20179;-67
2023/05/15 13:04:36;;;;;;;2.30;2.20;;;13.60;99.90;16.40;101345.00;;;;5053378;28;20651;-67
2023/05/15 13:07:20;;;;;;;0.70;0.70;;;13.70;99.90;16.20;101396.00;;;;5053134;28;20172;-67
2023/05/15 13:10:12;;;;;;;0.70;0.70;;;13.60;99.90;16.50;101383.00;;;;5053223;28;20271;-67
2023/05/15 13:12:46;;;;;;;1.20;1.20;;;13.60;99.90;16.50;101396.00;;;;5052902;28;20561;-67
2023/05/15 13:15:37;;;;;;;0.80;0.80;;;13.60;99.90;16.80;101397.00;;;;5052806;28;20815;-67
2023/05/15 13:18:23;;;;;;;1.07;1.07;;;13.70;99.90;16.50;101404.00;;;;5052366;28;20177;-66
2023/05/15 13:20:52;;;;;;;1.23;1.00;;;13.70;99.90;16.70;101414.00;;;;5046631;28;20236;-67
2023/05/15 13:23:23;;;;;;;1.70;1.60;;;13.80;99.90;16.50;101402.00;;;;5053904;28;20188;-67
2023/05/15 13:26:07;;;;;;;7.43;1.13;;;13.80;99.90;16.10;101402.00;;;;5040263;28;20229;-66
2023/05/15 13:28:33;;;;;;;1.17;1.17;;;13.60;99.90;16.50;101409.00;;;;5053404;28;20242;-67
2023/05/15 13:31:01;;;;;;;0.60;0.60;;;13.60;99.90;16.90;101424.00;;;;5050753;28;20545;-67
2023/05/15 13:33:27;;;;;;;3.03;2.07;;;13.80;99.90;16.10;101410.00;;;;5052311;28;20193;-67
2023/05/15 13:35:56;;;;;;;3.20;1.37;;;13.70;99.90;16.40;101384.00;;;;5051780;28;20270;-67
2023/05/15 13:38:25;;;;;;;1.10;1.10;;;13.60;99.90;16.10;101379.00;;;;5052298;28;20185;-66
2023/05/15 13:41:16;;;;;;;5.53;5.13;;;13.60;99.90;16.40;101382.00;;;;5053078;28;20268;-66
2023/05/15 13:43:46;;;;;;;0.87;0.83;;;13.70;99.90;16.30;101427.00;;;;5053398;28;20178;-66
2023/05/15 13:46:12;;;;;;;1.30;1.30;;;13.60;99.90;16.40;101433.00;;;;5033332;28;20197;-66
2023/05/15 13:49:16;;;;;;;2.13;2.03;;;13.70;99.90;15.90;101441.00;;;;5050626;28;20183;-67
2023/05/15 13:52:22;;;;;;;2.17;1.97;;;13.40;99.90;16.50;101434.00;;;;5052484;28;20200;-66
2023/05/15 13:54:55;;;;;;;1.67;1.03;;;13.40;99.90;15.70;101455.00;;;;5040303;28;20275;-66
2023/05/15 13:57:46;;;;;;;0.93;0.60;;;13.40;99.90;15.80;101443.00;;;;5067705;28;20189;-66
2023/05/15 14:00:15;;;;;;;2.87;1.23;;;13.30;99.90;16.50;101445.00;;;;5037987;28;20240;-66
2023/05/15 14:03:01;;;;;;;1.40;1.17;;;13.50;99.90;16.20;101449.00;;;;5048399;28;20246;-66
2023/05/15 14:05:27;;;;;;;0.80;0.80;;;13.60;99.90;16.40;101446.00;;;;5058128;28;20206;-66
2023/05/15 14:07:53;;;;;;;0.60;0.60;;;13.50;99.90;16.80;101459.00;;;;5051152;28;20192;-66
2023/05/15 14:10:42;;;;;;;1.33;1.33;;;13.70;99.90;17.00;101462.00;;;;5053007;28;20177;-66
2023/05/15 14:13:48;;;;;;;4.47;2.57;;;13.90;99.90;16.80;101459.00;;;;5051251;28;20221;-66
2023/05/15 14:16:26;;;;;;;0.60;0.60;;;13.90;99.90;17.30;101451.00;;;;5050981;28;20670;-66
2023/05/15 14:18:52;;;;;;;0.50;0.50;;;14.00;99.90;16.90;101443.00;;;;5051472;28;20192;-66
2023/05/15 14:21:18;;;;;;;1.47;1.37;;;14.00;99.90;17.00;101406.00;;;;5052843;28;20254;-65
2023/05/15 14:23:44;;;;;;;0.70;0.70;;;14.10;99.90;16.60;101441.00;;;;5034500;28;20178;-65
2023/05/15 14:26:10;;;;;;;0.77;0.77;;;14.00;99.90;17.20;101444.00;;;;5051206;28;20280;-64
2023/05/15 14:28:38;;;;;;;0.60;0.60;;;14.10;99.90;17.50;101449.00;;;;5051720;28;20761;-65
2023/05/15 14:31:04;;;;;;;1.10;1.10;;;14.10;99.90;16.90;101444.00;;;;5052797;28;20328;-65
2023/05/15 14:33:42;;;;;;;0.70;0.70;;;14.10;99.90;17.40;101445.00;;;;5068493;28;20223;-65
2023/05/15 14:36:19;;;;;;;0.60;0.60;;;14.20;99.90;17.50;101456.00;;;;5031987;28;20176;-65
2023/05/15 14:39:03;;;;;;;1.00;0.93;;;14.20;99.90;17.20;101456.00;;;;5047390;28;20192;-65
2023/05/15 14:41:31;;;;;;;0.97;0.97;;;14.10;99.90;16.70;101432.00;;;;5031871;28;20190;-65
2023/05/15 14:44:15;;;;;;;0.93;0.93;;;13.80;99.90;16.80;101446.00;;;;5051260;28;20206;-65
2023/05/15 14:47:08;;;;;;;3.80;1.07;;;13.70;99.90;16.50;101430.00;;;;5053015;28;20209;-65
2023/05/15 14:49:56;;;;;;;1.47;1.27;;;13.60;99.90;16.70;101434.00;;;;5052328;28;20192;-65
2023/05/15 14:52:24;;;;;;;0.60;0.60;;;13.60;99.90;17.10;101441.00;;;;5062489;28;20213;-65
2023/05/15 14:55:13;;;;;;;3.00;1.70;;;13.70;99.90;16.80;101439.00;;;;5060920;28;20232;-65
2023/05/15 14:58:32;;;;;;;0.50;0.50;;;13.80;99.90;16.50;101425.00;;;;5059684;28;20272;-65
2023/05/15 15:01:32;;;;;;;0.87;0.87;;;13.70;99.90;17.20;101416.00;;;;5060687;28;20186;-65
2023/05/15 15:04:01;;;;;;;1.17;0.80;;;13.70;99.90;16.60;101441.00;;;;5056564;28;20188;-65
2023/05/15 15:06:35;;;;;;;0.60;0.60;;;13.80;99.90;17.40;101433.00;;;;5023205;28;20686;-65
2023/05/15 15:09:01;;;;;;;1.37;1.37;;;14.00;99.90;17.50;101425.00;;;;5050102;28;20536;-66
2023/05/15 15:11:30;;;;;;;0.70;0.70;;;14.00;99.90;17.30;101435.00;;;;5050045;28;20281;-65
2023/05/15 15:13:56;;;;;;;1.03;1.03;;;14.10;99.90;17.00;101445.00;;;;5052352;28;20190;-66
2023/05/15 15:16:22;;;;;;;0.70;0.70;;;14.10;99.90;17.20;101434.00;;;;5051361;28;20196;-69
2023/05/15 15:18:49;;;;;;;0.70;0.70;;;14.00;99.90;16.90;101445.00;;;;5053867;28;20185;-65
2023/05/15 15:21:20;;;;;;;0.70;0.70;;;13.80;99.90;17.00;101442.00;;;;5056252;28;20266;-66
2023/05/15 15:23:47;;;;;;;0.87;0.87;;;13.90;99.90;17.60;101445.00;;;;5054046;28;20185;-65
2023/05/15 15:26:16;;;;;;;1.00;1.00;;;14.10;99.90;17.30;101459.00;;;;5056087;28;20189;-67
2023/05/15 15:28:45;;;;;;;0.80;0.80;;;14.10;99.90;16.70;101433.00;;;;5053816;28;20184;-63
2023/05/15 15:31:31;;;;;;;0.60;0.60;;;14.00;99.90;17.30;101413.00;;;;5053760;28;20196;-65
2023/05/15 15:34:12;;;;;;;2.53;2.33;;;14.00;99.90;16.70;101447.00;;;;5045348;28;20546;-63
2023/05/15 15:36:42;;;;;;;0.90;0.90;;;14.00;99.90;16.60;101458.00;;;;5055250;28;20191;-66
2023/05/15 15:39:18;;;;;;;2.93;1.30;;;13.90;99.90;17.60;101463.00;;;;5055834;28;20218;-65
2023/05/15 15:41:44;;;;;;;1.00;1.00;;;14.10;99.90;16.60;101465.00;;;;5038685;28;20622;-64
2023/05/15 15:44:15;;;;;;;0.60;0.60;;;14.10;99.90;17.30;101465.00;;;;5056058;28;20262;-62
2023/05/15 15:46:47;;;;;;;6.57;1.63;;;14.10;99.90;17.20;101460.00;;;;5037011;28;20645;-64
2023/05/15 15:49:16;;;;;;;1.97;1.87;;;14.20;99.90;16.60;101464.00;;;;5054903;28;20540;-63
2023/05/15 15:51:49;;;;;;;0.60;0.60;;;14.00;99.90;16.90;101440.00;;;;5054579;28;20202;-65
2023/05/15 15:54:18;;;;;;;0.77;0.77;;;14.00;99.90;16.70;101462.00;;;;5055257;28;20189;-66
2023/05/15 15:56:46;;;;;;;0.63;0.63;;;14.10;99.90;16.30;101467.00;;;;5055298;28;20187;-65
2023/05/15 15:59:16;;;;;;;1.70;1.00;;;13.90;99.90;16.60;101474.00;;;;5055433;28;20193;-65
2023/05/15 16:01:45;;;;;;;3.80;3.50;;;13.80;99.90;16.70;101463.00;;;;5054565;28;20254;-65
2023/05/15 16:04:18;;;;;;;0.73;0.73;;;13.80;99.90;16.40;101471.00;;;;5054803;28;20651;-65
2023/05/15 16:06:44;;;;;;;0.50;0.50;;;13.70;99.90;16.90;101475.00;;;;5050236;28;20694;-66
2023/05/15 16:09:18;;;;;;;0.90;0.90;;;13.70;99.90;16.20;101476.00;;;;5055186;28;20220;-68
2023/05/15 16:11:50;;;;;;;0.90;0.90;;;13.70;99.90;16.90;101482.00;;;;5034718;28;20204;-68
2023/05/15 16:14:22;;;;;;;1.27;1.17;;;13.80;99.90;16.00;101472.00;;;;5050193;28;20218;-67
2023/05/15 16:16:57;;;;;;;0.57;0.57;;;13.60;99.90;15.90;101470.00;;;;5032939;28;20185;-70
2023/05/15 16:19:43;;;;;;;0.57;0.57;;;13.40;99.90;16.80;101490.00;;;;5050674;28;20190;-71
2023/05/15 16:22:10;;;;;;;1.33;1.23;;;13.50;99.90;16.00;101473.00;;;;5038529;28;20219;-71
2023/05/15 16:24:39;;;;;;;0.73;0.73;;;13.40;99.90;15.50;101482.00;;;;5054597;28;20191;-74
2023/05/15 16:27:05;;;;;;;0.80;0.80;;;13.20;99.90;15.30;101484.00;;;;5053371;28;20235;-75
2023/05/15 16:29:53;;;;;;;0.83;0.83;;;13.00;99.90;15.70;101484.00;;;;5053133;28;20597;-71
2023/05/15 16:32:22;;;;;;;0.40;0.40;;;13.00;99.90;15.70;101473.00;;;;5048431;28;20227;-68
2023/05/15 16:34:57;;;;;;;0.50;0.50;;;13.00;99.90;16.50;101472.00;;;;5053546;28;20184;-70
2023/05/15 16:37:29;;;;;;;1.80;1.33;;;13.30;99.90;16.10;101476.00;;;;5053411;28;20200;-69
2023/05/15 16:39:56;;;;;;;0.73;0.73;;;13.30;99.90;16.10;101482.00;;;;5053951;28;20284;-66
2023/05/15 16:42:25;;;;;;;0.63;0.63;;;13.30;99.90;15.90;101492.00;;;;5054354;28;20201;-66
2023/05/15 16:45:29;;;;;;;0.50;0.50;;;13.30;99.90;16.60;101480.00;;;;5053847;28;20183;-66
2023/05/15 16:48:27;;;;;;;5.03;2.23;;;13.30;99.90;15.60;101470.00;;;;5032134;28;20557;-64
2023/05/15 16:52:07;;;;;;;1.70;1.07;;;13.10;99.90;15.90;101501.00;;;;5049957;28;20191;-65
2023/05/15 16:55:15;;;;;;;0.57;0.57;;;13.10;99.90;16.20;101503.00;;;;5054536;28;20278;-64
2023/05/15 16:58:23;;;;;;;0.60;0.60;;;13.20;99.90;15.70;101496.00;;;;5043405;28;20205;-67
2023/05/15 17:01:20;;;;;;;3.50;1.77;;;12.90;99.90;15.50;101440.00;;;;5049044;28;20247;-66
2023/05/15 17:04:11;;;;;;;0.60;0.60;;;12.80;99.90;16.00;101497.00;;;;5042992;28;20218;-67
2023/05/15 17:06:57;;;;;;;0.50;0.50;;;12.90;99.90;16.10;101497.00;;;;5011995;28;20678;-68
2023/05/15 17:09:25;;;;;;;1.70;1.60;;;13.00;99.90;15.70;101454.00;;;;5011337;28;20196;-68
2023/05/15 17:12:14;;;;;;;1.83;1.30;;;13.00;99.90;15.10;101500.00;;;;5012079;28;20686;-67
2023/05/15 17:14:40;;;;;;;4.00;0.70;;;12.70;99.90;15.30;101496.00;;;;5011884;28;20221;-67
2023/05/15 17:17:31;;;;;;;8.23;1.27;;;12.60;99.90;15.80;101504.00;;;;5019224;28;20557;-67
2023/05/15 17:20:22;;;;;;;1.03;0.93;;;12.70;99.90;15.30;101513.00;;;;5036214;28;20270;-67
2023/05/15 17:22:55;;;;;;;1.43;1.00;;;12.70;99.90;15.20;101525.00;;;;5051009;28;20260;-68
2023/05/15 17:25:22;;;;;;;0.40;0.40;;;12.70;99.90;15.40;101526.00;;;;5052701;28;20213;-67
2023/05/15 17:27:54;;;;;;;0.70;0.70;;;12.60;99.90;15.20;101481.00;;;;5051906;28;20273;-68
2023/05/15 17:30:20;;;;;;;1.40;1.30;;;12.70;99.90;15.00;101513.00;;;;5052267;28;20199;-67
2023/05/15 17:32:48;;;;;;;3.90;1.70;;;12.50;99.90;15.10;101523.00;;;;5051823;28;20216;-67
2023/05/15 17:35:34;;;;;;;4.30;1.50;;;12.60;99.90;14.90;101525.00;;;;5034798;28;20192;-67
2023/05/15 17:38:35;;;;;;;3.20;1.20;;;12.60;99.90;15.10;101528.00;;;;5052544;28;20197;-67
2023/05/15 17:41:18;;;;;;;0.60;0.60;;;12.60;99.90;15.10;101528.00;;;;5052080;28;20241;-67
2023/05/15 17:44:28;;;;;;;1.23;1.13;;;12.50;99.90;15.60;101542.00;;;;5044800;28;20203;-67
2023/05/15 17:47:07;;;;;;;1.00;1.00;;;12.70;99.90;15.90;101510.00;;;;5052496;28;20182;-67
2023/05/15 17:49:33;;;;;;;3.83;2.43;;;12.90;99.90;14.80;101542.00;;;;5050813;28;20186;-68
2023/05/15 17:52:16;;;;;;;4.53;1.07;;;12.60;99.90;15.50;101550.00;;;;5053232;28;20197;-67
2023/05/15 17:54:45;;;;;;;0.60;0.60;;;12.50;99.90;15.60;101554.00;;;;5051530;28;20283;-67
2023/05/15 17:57:31;;;;;;;2.30;1.13;;;12.60;99.90;15.00;101561.00;;;;5051590;28;20243;-65
2023/05/15 17:59:57;;;;;;;4.33;1.63;;;12.50;99.90;14.70;101560.00;;;;5051602;28;20644;-66
2023/05/15 18:02:23;;;;;;;0.80;0.57;;;12.40;99.90;14.60;101566.00;;;;5039064;28;20197;-67
2023/05/15 18:04:49;;;;;;;0.97;0.60;;;12.30;99.90;15.70;101574.00;;;;5051629;28;20190;-67
2023/05/15 18:07:18;;;;;;;6.27;0.93;;;12.40;99.90;15.60;101588.00;;;;5051677;28;20189;-67
2023/05/15 18:09:44;;;;;;;0.40;0.40;;;12.60;99.90;15.50;101563.00;;;;5047839;28;20187;-67
2023/05/15 18:12:10;;;;;;;0.37;0.37;;;12.60;99.90;15.40;101557.00;;;;5031602;28;20538;-67
2023/05/15 18:14:38;;;;;;;0.37;0.37;;;12.50;99.90;14.70;101590.00;;;;5064293;28;20182;-67
2023/05/15 18:17:25;;;;;;;1.93;1.83;;;12.30;99.90;15.10;101592.00;;;;5034340;28;20263;-67
2023/05/15 18:19:51;;;;;;;4.83;1.30;;;12.30;99.90;14.00;101582.00;;;;5052635;28;20200;-67
2023/05/15 18:22:16;;;;;;;1.00;1.00;;;12.00;99.90;14.40;101598.00;;;;5048487;28;20288;-67
2023/05/15 18:25:04;;;;;;;1.33;1.23;;;12.00;99.90;14.00;101597.00;;;;5051124;28;20193;-67
2023/05/15 18:27:30;;;;;;;0.53;0.53;;;12.00;99.90;14.70;101557.00;;;;5050391;28;20213;-67
2023/05/15 18:30:31;;;;;;;5.93;1.10;;;12.00;99.90;14.80;101608.00;;;;5042793;28;20222;-67
2023/05/15 18:33:02;;;;;;;10.87;1.93;;;12.10;99.90;14.50;101620.00;;;;5051873;28;20269;-67
2023/05/15 18:36:06;;;;;;;0.40;0.40;;;12.20;99.90;14.70;101608.00;;;;5051952;28;20195;-67
2023/05/15 18:38:55;;;;;;;1.80;0.77;;;12.30;99.90;14.40;101639.00;;;;5046946;28;20183;-67
2023/05/15 18:41:26;;;;;;;2.17;0.77;;;12.10;99.90;14.90;101638.00;;;;5051900;28;20689;-67
2023/05/15 18:44:31;;;;;;;0.63;0.63;;;12.30;99.90;14.60;101618.00;;;;5034988;28;20186;-67
2023/05/15 18:47:38;;;;;;;16.53;1.50;;;12.00;99.90;14.90;101642.00;;;;5048016;28;20269;-67
2023/05/15 18:50:27;;;;;;;6.33;1.13;;;12.10;99.90;14.10;101635.00;;;;5049861;28;20583;-67
2023/05/15 18:53:24;;;;;;;1.20;1.10;;;12.10;99.90;14.70;101604.00;;;;5052661;28;20714;-67